Terminal Aerodrome Forecast
Issued by NWS

Home | Current Version | Previous Version | Text Only | Print | Product List | Glossary Off
Versions: 1 2 3 4 5 6 7 8 9 10 11

000
FTUS43 KBIS 271130
TAFDIK
TAF
KDIK 271130Z 2712/2812 21008KT P6SM SKC
     FM271500 25012KT P6SM SKC
     FM271700 30015KT P6SM SKC
     FM272100 33015G22KT P6SM SKC
     FM280100 35006KT P6SM SKC=

USA.gov is the U.S. government's official web portal to all federal, state and local government web resources and services.